Garfield, Arkansas
Current Conditions -  °F | °C
As of 4:42 AM on Sunday 21 Dec 2014 (Local Time) from KROG Reporting Station
Overcast Overcast  
Wind Chill: 37°   Ceiling: 1400
Heat Index: 41°   Visibility: 9mi
Dew Point: 39°   Wind: 6mph
Humidity: 93%   Direction: 170°S
Pressure: 30.12"   Gusts: NA
Location:  36.45°N, 93.97°W
Report Text: KROG 211042Z AUTO 17005KT 9SM BKN014 OVC020 05/04 A3012 RMK AO2
Loading
Personal Weather Stations






























Interactive Weather Map New forecast layout! Learn more

10-Day Weather Forecast

Advertisements
Track Severe Weather on mobile